sensor_id;sensor_type;location;lat;lon;timestamp;pressure;altitude;pressure_sealevel;temperature;humidity
53246;BME280;39569;51.090;-1.786;2023-06-22T00:02:00;101210.97;;;25.79;47.11
53246;BME280;39569;51.090;-1.786;2023-06-22T00:04:27;101205.31;;;25.95;46.23
53246;BME280;39569;51.090;-1.786;2023-06-22T00:06:55;101199.75;;;25.85;46.59
53246;BME280;39569;51.090;-1.786;2023-06-22T00:09:22;101202.22;;;25.82;46.55
53246;BME280;39569;51.090;-1.786;2023-06-22T00:11:49;101198.91;;;25.80;46.66
53246;BME280;39569;51.090;-1.786;2023-06-22T00:14:16;101203.22;;;25.71;46.95
53246;BME280;39569;51.090;-1.786;2023-06-22T00:16:42;101207.53;;;25.62;46.90
53246;BME280;39569;51.090;-1.786;2023-06-22T00:19:09;101196.78;;;25.55;47.25
53246;BME280;39569;51.090;-1.786;2023-06-22T00:21:37;101192.16;;;25.56;47.12
53246;BME280;39569;51.090;-1.786;2023-06-22T00:24:06;101201.75;;;25.58;46.92
53246;BME280;39569;51.090;-1.786;2023-06-22T00:26:32;101199.06;;;25.63;46.63
53246;BME280;39569;51.090;-1.786;2023-06-22T00:28:59;101197.38;;;25.62;46.69
53246;BME280;39569;51.090;-1.786;2023-06-22T00:31:26;101188.72;;;25.75;46.14
53246;BME280;39569;51.090;-1.786;2023-06-22T00:33:53;101186.94;;;25.54;47.29
53246;BME280;39569;51.090;-1.786;2023-06-22T00:36:20;101190.75;;;25.53;46.91
53246;BME280;39569;51.090;-1.786;2023-06-22T00:38:46;101189.38;;;25.51;46.72
53246;BME280;39569;51.090;-1.786;2023-06-22T00:41:17;101185.72;;;25.40;46.55
53246;BME280;39569;51.090;-1.786;2023-06-22T00:43:44;101180.34;;;25.23;46.89
53246;BME280;39569;51.090;-1.786;2023-06-22T00:46:11;101184.78;;;25.29;46.52
53246;BME280;39569;51.090;-1.786;2023-06-22T00:48:38;101176.25;;;25.21;46.66
53246;BME280;39569;51.090;-1.786;2023-06-22T00:51:07;101179.41;;;25.08;46.88
53246;BME280;39569;51.090;-1.786;2023-06-22T00:53:34;101178.38;;;25.14;47.05
53246;BME280;39569;51.090;-1.786;2023-06-22T00:56:02;101188.34;;;25.30;46.40
53246;BME280;39569;51.090;-1.786;2023-06-22T00:58:31;101185.34;;;25.31;46.76
53246;BME280;39569;51.090;-1.786;2023-06-22T01:00:58;101191.22;;;25.13;47.52
53246;BME280;39569;51.090;-1.786;2023-06-22T01:03:25;101191.47;;;25.12;47.33
53246;BME280;39569;51.090;-1.786;2023-06-22T01:05:53;101199.50;;;24.97;47.19
53246;BME280;39569;51.090;-1.786;2023-06-22T01:08:29;101201.22;;;25.03;47.22
53246;BME280;39569;51.090;-1.786;2023-06-22T01:11:01;101200.88;;;24.99;47.11
53246;BME280;39569;51.090;-1.786;2023-06-22T01:13:35;101197.13;;;25.05;47.12
53246;BME280;39569;51.090;-1.786;2023-06-22T01:16:08;101202.88;;;24.61;48.00
53246;BME280;39569;51.090;-1.786;2023-06-22T01:18:37;101206.16;;;25.06;47.70
53246;BME280;39569;51.090;-1.786;2023-06-22T01:21:07;101215.28;;;25.16;46.92
53246;BME280;39569;51.090;-1.786;2023-06-22T01:23:56;101209.31;;;25.19;46.65
53246;BME280;39569;51.090;-1.786;2023-06-22T01:26:35;101214.41;;;25.11;46.96
53246;BME280;39569;51.090;-1.786;2023-06-22T01:29:05;101211.38;;;25.07;47.17
53246;BME280;39569;51.090;-1.786;2023-06-22T01:31:34;101213.44;;;24.52;48.08
53246;BME280;39569;51.090;-1.786;2023-06-22T01:34:03;101206.78;;;24.43;48.22
53246;BME280;39569;51.090;-1.786;2023-06-22T01:36:32;101203.97;;;24.81;47.53
53246;BME280;39569;51.090;-1.786;2023-06-22T01:39:00;101202.44;;;24.69;47.57
53246;BME280;39569;51.090;-1.786;2023-06-22T01:41:30;101196.09;;;24.42;47.98
53246;BME280;39569;51.090;-1.786;2023-06-22T01:43:59;101208.94;;;24.41;48.14
53246;BME280;39569;51.090;-1.786;2023-06-22T01:46:28;101210.50;;;24.37;48.29
53246;BME280;39569;51.090;-1.786;2023-06-22T01:48:55;101213.13;;;24.27;48.44
53246;BME280;39569;51.090;-1.786;2023-06-22T01:51:22;101217.31;;;24.56;47.56
53246;BME280;39569;51.090;-1.786;2023-06-22T01:53:49;101211.06;;;24.61;47.42
53246;BME280;39569;51.090;-1.786;2023-06-22T01:56:17;101217.69;;;24.43;47.87
53246;BME280;39569;51.090;-1.786;2023-06-22T01:58:48;101224.63;;;24.51;47.55
53246;BME280;39569;51.090;-1.786;2023-06-22T02:01:20;101223.16;;;24.43;47.09
53246;BME280;39569;51.090;-1.786;2023-06-22T02:03:55;101220.03;;;24.34;47.28
53246;BME280;39569;51.090;-1.786;2023-06-22T02:06:27;101227.50;;;24.22;47.53
53246;BME280;39569;51.090;-1.786;2023-06-22T02:08:59;101224.72;;;24.17;47.47
53246;BME280;39569;51.090;-1.786;2023-06-22T02:11:28;101226.94;;;24.20;47.33
53246;BME280;39569;51.090;-1.786;2023-06-22T02:13:57;101225.47;;;24.13;47.49
53246;BME280;39569;51.090;-1.786;2023-06-22T02:16:24;101222.84;;;24.01;47.48
53246;BME280;39569;51.090;-1.786;2023-06-22T02:18:56;101230.09;;;23.96;47.60
53246;BME280;39569;51.090;-1.786;2023-06-22T02:21:28;101229.19;;;23.90;47.55
53246;BME280;39569;51.090;-1.786;2023-06-22T02:23:55;101225.22;;;23.81;47.50
53246;BME280;39569;51.090;-1.786;2023-06-22T02:26:22;101231.69;;;23.92;47.87
53246;BME280;39569;51.090;-1.786;2023-06-22T02:28:50;101234.22;;;23.98;47.71
53246;BME280;39569;51.090;-1.786;2023-06-22T02:31:17;101230.84;;;24.08;47.48
53246;BME280;39569;51.090;-1.786;2023-06-22T02:33:44;101235.41;;;24.02;47.76
53246;BME280;39569;51.090;-1.786;2023-06-22T02:36:12;101235.75;;;24.06;47.59
53246;BME280;39569;51.090;-1.786;2023-06-22T02:38:40;101230.41;;;23.99;48.04
53246;BME280;39569;51.090;-1.786;2023-06-22T02:41:14;101233.66;;;24.13;47.79
53246;BME280;39569;51.090;-1.786;2023-06-22T02:43:44;101233.06;;;24.11;47.65
53246;BME280;39569;51.090;-1.786;2023-06-22T02:46:11;101232.09;;;24.17;47.71
53246;BME280;39569;51.090;-1.786;2023-06-22T02:48:38;101236.13;;;24.14;47.77
53246;BME280;39569;51.090;-1.786;2023-06-22T02:51:05;101233.91;;;24.11;47.59
53246;BME280;39569;51.090;-1.786;2023-06-22T02:53:33;101227.69;;;24.16;48.00
53246;BME280;39569;51.090;-1.786;2023-06-22T02:56:01;101227.81;;;24.04;48.01
53246;BME280;39569;51.090;-1.786;2023-06-22T02:58:28;101223.31;;;24.15;48.04
53246;BME280;39569;51.090;-1.786;2023-06-22T03:00:55;101222.03;;;24.01;48.19
53246;BME280;39569;51.090;-1.786;2023-06-22T03:03:22;101214.88;;;24.16;47.90
53246;BME280;39569;51.090;-1.786;2023-06-22T03:05:51;101226.38;;;24.18;47.85
53246;BME280;39569;51.090;-1.786;2023-06-22T03:08:18;101215.59;;;24.28;47.31
53246;BME280;39569;51.090;-1.786;2023-06-22T03:10:46;101215.44;;;24.40;47.48
53246;BME280;39569;51.090;-1.786;2023-06-22T03:13:13;101202.63;;;24.41;47.22
53246;BME280;39569;51.090;-1.786;2023-06-22T03:15:40;101211.44;;;24.04;47.57
53246;BME280;39569;51.090;-1.786;2023-06-22T03:18:06;101216.22;;;24.14;46.93
53246;BME280;39569;51.090;-1.786;2023-06-22T03:20:33;101204.13;;;23.93;47.95
53246;BME280;39569;51.090;-1.786;2023-06-22T03:23:00;101214.22;;;23.93;47.53
53246;BME280;39569;51.090;-1.786;2023-06-22T03:25:26;101213.97;;;24.11;47.25
53246;BME280;39569;51.090;-1.786;2023-06-22T03:27:54;101209.34;;;23.95;47.32
53246;BME280;39569;51.090;-1.786;2023-06-22T03:30:21;101209.94;;;23.80;47.31
53246;BME280;39569;51.090;-1.786;2023-06-22T03:32:48;101213.66;;;23.74;47.24
53246;BME280;39569;51.090;-1.786;2023-06-22T03:35:15;101205.28;;;23.81;46.71
53246;BME280;39569;51.090;-1.786;2023-06-22T03:37:41;101204.75;;;23.62;47.48
53246;BME280;39569;51.090;-1.786;2023-06-22T03:40:09;101200.53;;;23.55;46.82
53246;BME280;39569;51.090;-1.786;2023-06-22T03:42:36;101194.06;;;23.44;46.85
53246;BME280;39569;51.090;-1.786;2023-06-22T03:45:05;101189.13;;;23.13;47.75
53246;BME280;39569;51.090;-1.786;2023-06-22T03:47:32;101186.41;;;23.13;47.86
53246;BME280;39569;51.090;-1.786;2023-06-22T03:49:59;101187.16;;;23.08;47.46
53246;BME280;39569;51.090;-1.786;2023-06-22T03:52:25;101185.81;;;23.11;47.75
53246;BME280;39569;51.090;-1.786;2023-06-22T03:54:52;101201.63;;;23.25;47.69
53246;BME280;39569;51.090;-1.786;2023-06-22T03:57:19;101202.34;;;23.32;47.68
53246;BME280;39569;51.090;-1.786;2023-06-22T03:59:45;101197.69;;;23.33;47.54
53246;BME280;39569;51.090;-1.786;2023-06-22T04:02:14;101201.88;;;23.24;48.19
53246;BME280;39569;51.090;-1.786;2023-06-22T04:04:40;101206.91;;;23.15;48.65
53246;BME280;39569;51.090;-1.786;2023-06-22T04:07:07;101197.81;;;23.10;48.38
53246;BME280;39569;51.090;-1.786;2023-06-22T04:09:34;101201.78;;;23.19;48.47
53246;BME280;39569;51.090;-1.786;2023-06-22T04:12:01;101204.31;;;23.37;48.05
53246;BME280;39569;51.090;-1.786;2023-06-22T04:14:28;101207.94;;;23.42;48.07
53246;BME280;39569;51.090;-1.786;2023-06-22T04:16:54;101204.50;;;23.47;48.16
53246;BME280;39569;51.090;-1.786;2023-06-22T04:19:23;101207.81;;;23.49;48.38
53246;BME280;39569;51.090;-1.786;2023-06-22T04:21:49;101214.72;;;23.40;48.17
53246;BME280;39569;51.090;-1.786;2023-06-22T04:24:16;101206.97;;;23.49;48.71
53246;BME280;39569;51.090;-1.786;2023-06-22T04:26:43;101206.78;;;23.55;48.71
53246;BME280;39569;51.090;-1.786;2023-06-22T04:29:11;101213.34;;;23.71;48.40
53246;BME280;39569;51.090;-1.786;2023-06-22T04:31:37;101206.38;;;23.63;48.07
53246;BME280;39569;51.090;-1.786;2023-06-22T04:34:05;101204.38;;;23.59;48.58
53246;BME280;39569;51.090;-1.786;2023-06-22T04:36:35;101203.47;;;23.70;48.31
53246;BME280;39569;51.090;-1.786;2023-06-22T04:39:07;101199.84;;;23.81;48.21
53246;BME280;39569;51.090;-1.786;2023-06-22T04:41:35;101208.00;;;23.81;48.21
53246;BME280;39569;51.090;-1.786;2023-06-22T04:44:10;101204.31;;;23.87;48.15
53246;BME280;39569;51.090;-1.786;2023-06-22T04:46:38;101209.69;;;23.82;48.58
53246;BME280;39569;51.090;-1.786;2023-06-22T04:49:06;101212.03;;;23.73;48.75
53246;BME280;39569;51.090;-1.786;2023-06-22T04:51:39;101210.34;;;23.89;48.79
53246;BME280;39569;51.090;-1.786;2023-06-22T04:54:06;101213.38;;;23.92;48.74
53246;BME280;39569;51.090;-1.786;2023-06-22T04:56:33;101215.72;;;23.84;49.00
53246;BME280;39569;51.090;-1.786;2023-06-22T04:59:00;101213.38;;;23.92;48.57
53246;BME280;39569;51.090;-1.786;2023-06-22T05:01:28;101217.59;;;24.00;48.42
53246;BME280;39569;51.090;-1.786;2023-06-22T05:03:56;101222.81;;;24.18;48.40
53246;BME280;39569;51.090;-1.786;2023-06-22T05:06:26;101218.50;;;24.22;48.42
53246;BME280;39569;51.090;-1.786;2023-06-22T05:08:55;101219.38;;;24.27;48.53
53246;BME280;39569;51.090;-1.786;2023-06-22T05:11:24;101214.03;;;24.32;48.08
53246;BME280;39569;51.090;-1.786;2023-06-22T05:13:51;101222.75;;;24.34;48.12
53246;BME280;39569;51.090;-1.786;2023-06-22T05:16:18;101220.47;;;24.26;48.86
53246;BME280;39569;51.090;-1.786;2023-06-22T05:18:51;101222.63;;;24.24;49.03
53246;BME280;39569;51.090;-1.786;2023-06-22T05:21:21;101220.03;;;24.34;48.94
53246;BME280;39569;51.090;-1.786;2023-06-22T05:23:48;101220.81;;;24.30;49.09
53246;BME280;39569;51.090;-1.786;2023-06-22T05:26:16;101228.63;;;24.43;48.76
53246;BME280;39569;51.090;-1.786;2023-06-22T05:28:43;101223.59;;;24.57;48.95
53246;BME280;39569;51.090;-1.786;2023-06-22T05:31:11;101230.56;;;24.48;49.18
53246;BME280;39569;51.090;-1.786;2023-06-22T05:33:37;101230.00;;;24.46;49.41
53246;BME280;39569;51.090;-1.786;2023-06-22T05:36:05;101217.69;;;24.43;49.39
53246;BME280;39569;51.090;-1.786;2023-06-22T05:38:32;101221.13;;;24.33;49.54
53246;BME280;39569;51.090;-1.786;2023-06-22T05:40:59;101228.88;;;24.42;49.38
53246;BME280;39569;51.090;-1.786;2023-06-22T05:43:27;101233.81;;;24.66;48.78
53246;BME280;39569;51.090;-1.786;2023-06-22T05:45:53;101237.47;;;24.72;48.94
53246;BME280;39569;51.090;-1.786;2023-06-22T05:48:20;101243.81;;;24.77;48.67
53246;BME280;39569;51.090;-1.786;2023-06-22T05:50:47;101249.38;;;24.82;48.73
53246;BME280;39569;51.090;-1.786;2023-06-22T05:53:14;101246.88;;;25.02;48.25
53246;BME280;39569;51.090;-1.786;2023-06-22T05:55:40;101249.34;;;25.04;48.39
53246;BME280;39569;51.090;-1.786;2023-06-22T05:58:08;101246.91;;;25.07;47.92
53246;BME280;39569;51.090;-1.786;2023-06-22T06:00:36;101259.16;;;24.78;49.16
53246;BME280;39569;51.090;-1.786;2023-06-22T06:03:03;101254.09;;;25.13;47.82
53246;BME280;39569;51.090;-1.786;2023-06-22T06:05:29;101263.41;;;24.91;48.48
53246;BME280;39569;51.090;-1.786;2023-06-22T06:07:56;101262.78;;;25.10;47.76
53246;BME280;39569;51.090;-1.786;2023-06-22T06:10:23;101262.78;;;25.10;48.22
53246;BME280;39569;51.090;-1.786;2023-06-22T06:12:50;101246.56;;;25.25;47.83
53246;BME280;39569;51.090;-1.786;2023-06-22T06:15:17;101245.97;;;25.23;48.67
53246;BME280;39569;51.090;-1.786;2023-06-22T06:17:50;101247.44;;;25.58;47.79
53246;BME280;39569;51.090;-1.786;2023-06-22T06:20:20;101234.97;;;25.72;47.68
53246;BME280;39569;51.090;-1.786;2023-06-22T06:22:47;101232.97;;;25.62;47.84
53246;BME280;39569;51.090;-1.786;2023-06-22T06:25:15;101230.44;;;25.51;48.01
53246;BME280;39569;51.090;-1.786;2023-06-22T06:27:43;101235.47;;;25.37;49.15
53246;BME280;39569;51.090;-1.786;2023-06-22T06:30:10;101235.94;;;25.56;48.01
53246;BME280;39569;51.090;-1.786;2023-06-22T06:32:38;101242.31;;;25.66;47.45
53246;BME280;39569;51.090;-1.786;2023-06-22T06:35:08;101235.25;;;25.75;48.34
53246;BME280;39569;51.090;-1.786;2023-06-22T06:37:37;101239.13;;;26.11;47.51
53246;BME280;39569;51.090;-1.786;2023-06-22T06:40:05;101240.09;;;25.95;48.54
53246;BME280;39569;51.090;-1.786;2023-06-22T06:42:33;101236.44;;;26.21;47.48
53246;BME280;39569;51.090;-1.786;2023-06-22T06:45:00;101229.59;;;25.87;48.46
53246;BME280;39569;51.090;-1.786;2023-06-22T06:47:27;101221.34;;;26.13;47.97
53246;BME280;39569;51.090;-1.786;2023-06-22T06:49:53;101228.34;;;26.41;47.69
53246;BME280;39569;51.090;-1.786;2023-06-22T06:52:21;101226.00;;;26.13;49.35
53246;BME280;39569;51.090;-1.786;2023-06-22T06:54:48;101227.13;;;26.17;48.99
53246;BME280;39569;51.090;-1.786;2023-06-22T06:57:17;101234.81;;;25.88;50.13
53246;BME280;39569;51.090;-1.786;2023-06-22T06:59:43;101233.25;;;26.34;48.86
53246;BME280;39569;51.090;-1.786;2023-06-22T07:02:10;101232.78;;;26.57;48.61
53246;BME280;39569;51.090;-1.786;2023-06-22T07:04:37;101235.72;;;26.41;49.04
53246;BME280;39569;51.090;-1.786;2023-06-22T07:07:04;101238.84;;;26.64;48.24
53246;BME280;39569;51.090;-1.786;2023-06-22T07:09:32;101229.41;;;26.97;47.75
53246;BME280;39569;51.090;-1.786;2023-06-22T07:11:59;101238.75;;;27.06;47.75
53246;BME280;39569;51.090;-1.786;2023-06-22T07:14:26;101244.75;;;26.88;48.24
53246;BME280;39569;51.090;-1.786;2023-06-22T07:16:53;101247.72;;;26.76;48.38
53246;BME280;39569;51.090;-1.786;2023-06-22T07:19:24;101251.13;;;27.18;47.93
53246;BME280;39569;51.090;-1.786;2023-06-22T07:21:52;101247.78;;;26.96;47.50
53246;BME280;39569;51.090;-1.786;2023-06-22T07:24:19;101247.56;;;27.18;47.17
53246;BME280;39569;51.090;-1.786;2023-06-22T07:26:47;101242.66;;;27.25;47.87
53246;BME280;39569;51.090;-1.786;2023-06-22T07:29:15;101233.09;;;27.38;47.50
53246;BME280;39569;51.090;-1.786;2023-06-22T07:31:42;101225.69;;;27.48;47.74
53246;BME280;39569;51.090;-1.786;2023-06-22T07:34:09;101227.22;;;27.14;48.48
53246;BME280;39569;51.090;-1.786;2023-06-22T07:36:36;101224.22;;;26.95;48.79
53246;BME280;39569;51.090;-1.786;2023-06-22T07:39:03;101223.50;;;27.65;46.77
53246;BME280;39569;51.090;-1.786;2023-06-22T07:41:29;101230.91;;;27.95;46.07
53246;BME280;39569;51.090;-1.786;2023-06-22T07:43:57;101227.31;;;27.79;46.92
53246;BME280;39569;51.090;-1.786;2023-06-22T07:46:24;101227.34;;;27.54;47.94
53246;BME280;39569;51.090;-1.786;2023-06-22T07:48:51;101226.22;;;27.85;47.41
53246;BME280;39569;51.090;-1.786;2023-06-22T07:51:18;101222.31;;;28.22;45.94
53246;BME280;39569;51.090;-1.786;2023-06-22T07:53:45;101220.06;;;28.49;45.39
53246;BME280;39569;51.090;-1.786;2023-06-22T07:56:12;101230.50;;;28.47;45.31
53246;BME280;39569;51.090;-1.786;2023-06-22T07:58:39;101231.59;;;28.56;45.57
53246;BME280;39569;51.090;-1.786;2023-06-22T08:01:07;101234.63;;;28.54;45.67
53246;BME280;39569;51.090;-1.786;2023-06-22T08:03:33;101226.63;;;28.63;44.27
53246;BME280;39569;51.090;-1.786;2023-06-22T08:06:00;101229.69;;;28.56;45.41
53246;BME280;39569;51.090;-1.786;2023-06-22T08:08:27;101222.19;;;28.67;44.91
53246;BME280;39569;51.090;-1.786;2023-06-22T08:10:54;101231.41;;;28.96;44.13
53246;BME280;39569;51.090;-1.786;2023-06-22T08:13:21;101228.84;;;29.15;44.47
53246;BME280;39569;51.090;-1.786;2023-06-22T08:15:47;101221.97;;;29.17;44.06
53246;BME280;39569;51.090;-1.786;2023-06-22T08:18:16;101230.56;;;29.00;44.41
53246;BME280;39569;51.090;-1.786;2023-06-22T08:20:42;101236.81;;;29.11;44.54
53246;BME280;39569;51.090;-1.786;2023-06-22T08:23:09;101233.63;;;29.76;43.49
53246;BME280;39569;51.090;-1.786;2023-06-22T08:25:36;101231.44;;;29.35;43.79
53246;BME280;39569;51.090;-1.786;2023-06-22T08:28:03;101240.34;;;29.94;43.48
53246;BME280;39569;51.090;-1.786;2023-06-22T08:30:30;101232.38;;;29.59;43.35
53246;BME280;39569;51.090;-1.786;2023-06-22T08:32:57;101242.38;;;29.83;42.77
53246;BME280;39569;51.090;-1.786;2023-06-22T08:35:25;101238.41;;;29.94;42.82
53246;BME280;39569;51.090;-1.786;2023-06-22T08:37:52;101225.13;;;30.25;42.85
53246;BME280;39569;51.090;-1.786;2023-06-22T08:40:20;101224.47;;;30.62;42.25
53246;BME280;39569;51.090;-1.786;2023-06-22T08:42:47;101220.88;;;30.85;41.53
53246;BME280;39569;51.090;-1.786;2023-06-22T08:45:14;101218.72;;;31.01;42.69
53246;BME280;39569;51.090;-1.786;2023-06-22T08:47:41;101217.56;;;31.57;40.77
53246;BME280;39569;51.090;-1.786;2023-06-22T08:50:09;101219.97;;;31.64;40.52
53246;BME280;39569;51.090;-1.786;2023-06-22T08:52:38;101223.31;;;32.52;38.90
53246;BME280;39569;51.090;-1.786;2023-06-22T08:55:07;101223.38;;;32.34;38.51
53246;BME280;39569;51.090;-1.786;2023-06-22T08:57:34;101218.53;;;33.07;38.21
53246;BME280;39569;51.090;-1.786;2023-06-22T09:00:03;101222.78;;;32.50;39.14
53246;BME280;39569;51.090;-1.786;2023-06-22T09:02:33;101223.25;;;32.93;37.92
53246;BME280;39569;51.090;-1.786;2023-06-22T09:05:03;101222.28;;;33.25;38.37
53246;BME280;39569;51.090;-1.786;2023-06-22T09:07:31;101224.41;;;33.94;37.21
53246;BME280;39569;51.090;-1.786;2023-06-22T09:09:59;101228.66;;;34.31;36.18
53246;BME280;39569;51.090;-1.786;2023-06-22T09:12:25;101225.28;;;33.37;36.79
53246;BME280;39569;51.090;-1.786;2023-06-22T09:14:56;101228.94;;;33.90;36.89
53246;BME280;39569;51.090;-1.786;2023-06-22T09:17:23;101225.94;;;34.39;36.25
53246;BME280;39569;51.090;-1.786;2023-06-22T09:19:49;101227.75;;;33.83;37.58
53246;BME280;39569;51.090;-1.786;2023-06-22T09:22:16;101224.63;;;34.37;36.24
53246;BME280;39569;51.090;-1.786;2023-06-22T09:24:43;101228.13;;;34.51;36.27
53246;BME280;39569;51.090;-1.786;2023-06-22T09:27:11;101227.94;;;34.95;34.95
53246;BME280;39569;51.090;-1.786;2023-06-22T09:29:38;101226.56;;;34.36;35.93
53246;BME280;39569;51.090;-1.786;2023-06-22T09:32:06;101215.00;;;34.82;35.68
53246;BME280;39569;51.090;-1.786;2023-06-22T09:34:32;101225.09;;;34.78;36.59
53246;BME280;39569;51.090;-1.786;2023-06-22T09:36:59;101228.88;;;34.91;34.68
53246;BME280;39569;51.090;-1.786;2023-06-22T09:39:27;101222.44;;;34.64;35.96
53246;BME280;39569;51.090;-1.786;2023-06-22T09:41:54;101217.00;;;35.58;34.09
53246;BME280;39569;51.090;-1.786;2023-06-22T09:44:22;101211.28;;;36.18;33.42
53246;BME280;39569;51.090;-1.786;2023-06-22T09:46:48;101215.38;;;35.57;35.22
53246;BME280;39569;51.090;-1.786;2023-06-22T09:49:15;101224.50;;;34.98;34.86
53246;BME280;39569;51.090;-1.786;2023-06-22T09:51:42;101225.34;;;35.50;33.55
53246;BME280;39569;51.090;-1.786;2023-06-22T09:54:09;101223.16;;;35.81;32.58
53246;BME280;39569;51.090;-1.786;2023-06-22T09:56:35;101228.41;;;35.74;32.59
53246;BME280;39569;51.090;-1.786;2023-06-22T09:59:03;101226.47;;;35.32;32.93
53246;BME280;39569;51.090;-1.786;2023-06-22T10:01:31;101224.69;;;36.25;31.05
53246;BME280;39569;51.090;-1.786;2023-06-22T10:03:57;101223.78;;;36.04;30.86
53246;BME280;39569;51.090;-1.786;2023-06-22T10:06:24;101221.78;;;36.13;31.74
53246;BME280;39569;51.090;-1.786;2023-06-22T10:08:51;101218.91;;;36.68;29.37
53246;BME280;39569;51.090;-1.786;2023-06-22T10:11:18;101217.44;;;36.41;29.22
53246;BME280;39569;51.090;-1.786;2023-06-22T10:13:45;101217.16;;;36.63;29.71
53246;BME280;39569;51.090;-1.786;2023-06-22T10:16:12;101224.22;;;36.23;29.96
53246;BME280;39569;51.090;-1.786;2023-06-22T10:18:40;101218.56;;;36.40;32.15
53246;BME280;39569;51.090;-1.786;2023-06-22T10:21:06;101223.19;;;36.36;30.69
53246;BME280;39569;51.090;-1.786;2023-06-22T10:23:33;101225.91;;;37.23;28.32
53246;BME280;39569;51.090;-1.786;2023-06-22T10:26:00;101216.88;;;37.06;29.17
53246;BME280;39569;51.090;-1.786;2023-06-22T10:28:26;101221.28;;;36.86;28.85
53246;BME280;39569;51.090;-1.786;2023-06-22T10:30:53;101219.09;;;36.92;28.92
53246;BME280;39569;51.090;-1.786;2023-06-22T10:33:20;101220.59;;;35.33;31.25
53246;BME280;39569;51.090;-1.786;2023-06-22T10:35:48;101224.19;;;36.61;29.71
53246;BME280;39569;51.090;-1.786;2023-06-22T10:38:15;101217.84;;;36.81;29.74
53246;BME280;39569;51.090;-1.786;2023-06-22T10:40:41;101224.31;;;36.73;29.73
53246;BME280;39569;51.090;-1.786;2023-06-22T10:43:08;101219.09;;;36.92;28.56
53246;BME280;39569;51.090;-1.786;2023-06-22T10:45:35;101217.88;;;36.14;30.24
53246;BME280;39569;51.090;-1.786;2023-06-22T10:48:02;101221.75;;;35.58;30.10
53246;BME280;39569;51.090;-1.786;2023-06-22T10:50:29;101215.03;;;35.68;30.52
53246;BME280;39569;51.090;-1.786;2023-06-22T10:52:57;101218.03;;;36.09;31.19
53246;BME280;39569;51.090;-1.786;2023-06-22T10:55:24;101218.97;;;36.88;29.40
53246;BME280;39569;51.090;-1.786;2023-06-22T10:57:51;101224.41;;;37.05;27.75
53246;BME280;39569;51.090;-1.786;2023-06-22T11:00:18;101225.50;;;36.92;27.79
53246;BME280;39569;51.090;-1.786;2023-06-22T11:02:46;101222.41;;;37.35;30.09
53246;BME280;39569;51.090;-1.786;2023-06-22T11:05:13;101219.91;;;38.31;27.65
53246;BME280;39569;51.090;-1.786;2023-06-22T11:07:41;101219.00;;;36.13;29.04
53246;BME280;39569;51.090;-1.786;2023-06-22T11:10:10;101232.34;;;35.39;30.09
53246;BME280;39569;51.090;-1.786;2023-06-22T11:12:37;101234.50;;;35.25;29.92
53246;BME280;39569;51.090;-1.786;2023-06-22T11:15:05;101226.47;;;36.67;29.43
53246;BME280;39569;51.090;-1.786;2023-06-22T11:17:32;101224.97;;;37.40;28.50
53246;BME280;39569;51.090;-1.786;2023-06-22T11:19:58;101225.66;;;37.70;27.34
53246;BME280;39569;51.090;-1.786;2023-06-22T11:22:25;101216.25;;;36.50;26.90
53246;BME280;39569;51.090;-1.786;2023-06-22T11:24:52;101209.44;;;38.53;26.72
53246;BME280;39569;51.090;-1.786;2023-06-22T11:27:20;101223.81;;;37.41;27.91
53246;BME280;39569;51.090;-1.786;2023-06-22T11:29:47;101221.47;;;37.64;28.21
53246;BME280;39569;51.090;-1.786;2023-06-22T11:32:15;101217.00;;;38.64;27.07
53246;BME280;39569;51.090;-1.786;2023-06-22T11:34:41;101208.13;;;38.86;25.78
53246;BME280;39569;51.090;-1.786;2023-06-22T11:37:08;101207.69;;;38.36;24.62
53246;BME280;39569;51.090;-1.786;2023-06-22T11:39:35;101208.94;;;38.87;24.97
53246;BME280;39569;51.090;-1.786;2023-06-22T11:42:02;101212.06;;;38.01;26.11
53246;BME280;39569;51.090;-1.786;2023-06-22T11:44:30;101210.13;;;38.62;25.79
53246;BME280;39569;51.090;-1.786;2023-06-22T11:46:57;101207.44;;;39.29;26.50
53246;BME280;39569;51.090;-1.786;2023-06-22T11:49:26;101204.59;;;39.13;25.17
53246;BME280;39569;51.090;-1.786;2023-06-22T11:51:53;101193.50;;;38.65;25.29
53246;BME280;39569;51.090;-1.786;2023-06-22T11:54:19;101196.97;;;38.50;25.28
53246;BME280;39569;51.090;-1.786;2023-06-22T11:56:46;101204.84;;;36.64;26.57
53246;BME280;39569;51.090;-1.786;2023-06-22T11:59:13;101200.81;;;37.23;25.28
53246;BME280;39569;51.090;-1.786;2023-06-22T12:01:41;101184.50;;;38.11;27.00
53246;BME280;39569;51.090;-1.786;2023-06-22T12:04:08;101190.66;;;37.93;26.80
53246;BME280;39569;51.090;-1.786;2023-06-22T12:06:37;101185.91;;;38.54;26.94
53246;BME280;39569;51.090;-1.786;2023-06-22T12:09:07;101193.47;;;38.17;26.63
53246;BME280;39569;51.090;-1.786;2023-06-22T12:11:34;101190.66;;;38.89;25.64
53246;BME280;39569;51.090;-1.786;2023-06-22T12:14:00;101185.88;;;38.05;26.55
53246;BME280;39569;51.090;-1.786;2023-06-22T12:16:27;101180.69;;;38.64;26.59
53246;BME280;39569;51.090;-1.786;2023-06-22T12:18:56;101177.41;;;39.26;26.83
53246;BME280;39569;51.090;-1.786;2023-06-22T12:21:22;101167.50;;;39.28;26.25
53246;BME280;39569;51.090;-1.786;2023-06-22T12:23:49;101170.38;;;39.60;24.19
53246;BME280;39569;51.090;-1.786;2023-06-22T12:26:16;101173.50;;;40.01;22.81
53246;BME280;39569;51.090;-1.786;2023-06-22T12:28:42;101165.16;;;39.74;24.91
53246;BME280;39569;51.090;-1.786;2023-06-22T12:31:09;101169.81;;;39.54;24.47
53246;BME280;39569;51.090;-1.786;2023-06-22T12:33:36;101171.59;;;38.55;26.28
53246;BME280;39569;51.090;-1.786;2023-06-22T12:36:04;101168.63;;;37.79;25.49
53246;BME280;39569;51.090;-1.786;2023-06-22T12:38:31;101179.31;;;36.83;28.05
53246;BME280;39569;51.090;-1.786;2023-06-22T12:40:58;101167.81;;;37.79;26.87
53246;BME280;39569;51.090;-1.786;2023-06-22T12:43:25;101171.47;;;37.59;27.08